sensor_id;sensor_type;location;lat;lon;timestamp;P1;durP1;ratioP1;P2;durP2;ratioP2
71176;SDS011;58877;51.992;4.504;2024-03-06T00:01:52;19.21;;;18.95;;
71176;SDS011;58877;51.992;4.504;2024-03-06T00:04:18;18.35;;;18.25;;
71176;SDS011;58877;51.992;4.504;2024-03-06T00:06:44;18.43;;;18.19;;
71176;SDS011;58877;51.992;4.504;2024-03-06T00:09:09;18.97;;;18.62;;
71176;SDS011;58877;51.992;4.504;2024-03-06T00:11:35;20.19;;;20.06;;
71176;SDS011;58877;51.992;4.504;2024-03-06T00:14:03;19.22;;;19.14;;
71176;SDS011;58877;51.992;4.504;2024-03-06T00:16:31;19.24;;;19.23;;
71176;SDS011;58877;51.992;4.504;2024-03-06T00:18:57;18.99;;;18.99;;
71176;SDS011;58877;51.992;4.504;2024-03-06T00:21:22;19.65;;;19.52;;
71176;SDS011;58877;51.992;4.504;2024-03-06T00:23:48;20.65;;;20.35;;
71176;SDS011;58877;51.992;4.504;2024-03-06T00:26:13;19.85;;;19.79;;
71176;SDS011;58877;51.992;4.504;2024-03-06T00:28:39;19.25;;;19.24;;
71176;SDS011;58877;51.992;4.504;2024-03-06T00:31:05;19.53;;;19.43;;
71176;SDS011;58877;51.992;4.504;2024-03-06T00:33:31;19.40;;;19.30;;
71176;SDS011;58877;51.992;4.504;2024-03-06T00:35:56;19.45;;;19.32;;
71176;SDS011;58877;51.992;4.504;2024-03-06T00:38:22;19.23;;;19.21;;
71176;SDS011;58877;51.992;4.504;2024-03-06T00:40:48;19.59;;;19.58;;
71176;SDS011;58877;51.992;4.504;2024-03-06T00:43:14;19.33;;;19.20;;
71176;SDS011;58877;51.992;4.504;2024-03-06T00:45:40;19.45;;;19.36;;
71176;SDS011;58877;51.992;4.504;2024-03-06T00:48:05;20.69;;;20.59;;
71176;SDS011;58877;51.992;4.504;2024-03-06T00:50:31;19.30;;;19.25;;
71176;SDS011;58877;51.992;4.504;2024-03-06T00:52:57;20.29;;;20.03;;
71176;SDS011;58877;51.992;4.504;2024-03-06T00:55:23;20.48;;;20.46;;
71176;SDS011;58877;51.992;4.504;2024-03-06T00:57:49;18.93;;;18.74;;
71176;SDS011;58877;51.992;4.504;2024-03-06T01:00:15;19.82;;;19.58;;
71176;SDS011;58877;51.992;4.504;2024-03-06T01:02:41;19.96;;;19.85;;
71176;SDS011;58877;51.992;4.504;2024-03-06T01:05:07;19.69;;;19.42;;
71176;SDS011;58877;51.992;4.504;2024-03-06T01:07:34;20.38;;;20.34;;
71176;SDS011;58877;51.992;4.504;2024-03-06T01:10:02;20.87;;;20.80;;
71176;SDS011;58877;51.992;4.504;2024-03-06T01:12:29;20.40;;;20.26;;
71176;SDS011;58877;51.992;4.504;2024-03-06T01:14:54;19.06;;;19.05;;
71176;SDS011;58877;51.992;4.504;2024-03-06T01:17:21;19.56;;;19.51;;
71176;SDS011;58877;51.992;4.504;2024-03-06T01:19:46;20.15;;;20.02;;
71176;SDS011;58877;51.992;4.504;2024-03-06T01:22:12;19.27;;;19.24;;
71176;SDS011;58877;51.992;4.504;2024-03-06T01:24:38;18.94;;;18.88;;
71176;SDS011;58877;51.992;4.504;2024-03-06T01:27:04;18.91;;;18.90;;
71176;SDS011;58877;51.992;4.504;2024-03-06T01:29:30;19.14;;;19.14;;
71176;SDS011;58877;51.992;4.504;2024-03-06T01:31:56;19.06;;;19.05;;
71176;SDS011;58877;51.992;4.504;2024-03-06T01:34:21;19.70;;;19.56;;
71176;SDS011;58877;51.992;4.504;2024-03-06T01:36:50;18.89;;;18.83;;
71176;SDS011;58877;51.992;4.504;2024-03-06T01:39:17;18.75;;;18.75;;
71176;SDS011;58877;51.992;4.504;2024-03-06T01:41:46;18.75;;;18.75;;
71176;SDS011;58877;51.992;4.504;2024-03-06T01:44:16;18.40;;;18.40;;
71176;SDS011;58877;51.992;4.504;2024-03-06T01:46:44;17.91;;;17.86;;
71176;SDS011;58877;51.992;4.504;2024-03-06T01:49:10;18.73;;;18.71;;
71176;SDS011;58877;51.992;4.504;2024-03-06T01:51:39;18.86;;;18.60;;
71176;SDS011;58877;51.992;4.504;2024-03-06T01:54:06;19.64;;;19.63;;
71176;SDS011;58877;51.992;4.504;2024-03-06T01:56:33;18.14;;;18.13;;
71176;SDS011;58877;51.992;4.504;2024-03-06T01:59:00;17.75;;;17.73;;
71176;SDS011;58877;51.992;4.504;2024-03-06T02:01:27;17.80;;;17.80;;
71176;SDS011;58877;51.992;4.504;2024-03-06T02:03:54;18.44;;;18.43;;
71176;SDS011;58877;51.992;4.504;2024-03-06T02:06:19;18.53;;;18.52;;
71176;SDS011;58877;51.992;4.504;2024-03-06T02:08:47;18.84;;;18.77;;
71176;SDS011;58877;51.992;4.504;2024-03-06T02:11:12;19.18;;;19.01;;
71176;SDS011;58877;51.992;4.504;2024-03-06T02:13:39;19.19;;;19.19;;
71176;SDS011;58877;51.992;4.504;2024-03-06T02:16:05;18.65;;;18.60;;
71176;SDS011;58877;51.992;4.504;2024-03-06T02:18:31;18.22;;;18.19;;
71176;SDS011;58877;51.992;4.504;2024-03-06T02:20:57;18.77;;;18.74;;
71176;SDS011;58877;51.992;4.504;2024-03-06T02:23:22;19.92;;;19.87;;
71176;SDS011;58877;51.992;4.504;2024-03-06T02:25:48;19.04;;;18.98;;
71176;SDS011;58877;51.992;4.504;2024-03-06T02:28:15;20.42;;;20.24;;
71176;SDS011;58877;51.992;4.504;2024-03-06T02:30:42;19.98;;;19.71;;
71176;SDS011;58877;51.992;4.504;2024-03-06T02:33:08;20.20;;;20.05;;
71176;SDS011;58877;51.992;4.504;2024-03-06T02:35:37;19.91;;;19.91;;
71176;SDS011;58877;51.992;4.504;2024-03-06T02:38:05;20.47;;;20.33;;
71176;SDS011;58877;51.992;4.504;2024-03-06T02:40:31;20.83;;;20.62;;
71176;SDS011;58877;51.992;4.504;2024-03-06T02:42:57;20.45;;;20.41;;
71176;SDS011;58877;51.992;4.504;2024-03-06T02:45:22;21.33;;;21.21;;
71176;SDS011;58877;51.992;4.504;2024-03-06T02:47:48;20.80;;;20.68;;
71176;SDS011;58877;51.992;4.504;2024-03-06T02:50:14;20.17;;;20.15;;
71176;SDS011;58877;51.992;4.504;2024-03-06T02:52:40;19.20;;;19.19;;
71176;SDS011;58877;51.992;4.504;2024-03-06T02:55:06;19.49;;;19.40;;
71176;SDS011;58877;51.992;4.504;2024-03-06T02:57:32;19.87;;;19.63;;
71176;SDS011;58877;51.992;4.504;2024-03-06T02:59:58;20.25;;;20.10;;
71176;SDS011;58877;51.992;4.504;2024-03-06T03:02:24;21.00;;;21.00;;
71176;SDS011;58877;51.992;4.504;2024-03-06T03:04:50;21.57;;;21.57;;
71176;SDS011;58877;51.992;4.504;2024-03-06T03:07:17;22.04;;;21.85;;
71176;SDS011;58877;51.992;4.504;2024-03-06T03:09:45;21.61;;;21.55;;
71176;SDS011;58877;51.992;4.504;2024-03-06T03:12:11;21.55;;;21.51;;
71176;SDS011;58877;51.992;4.504;2024-03-06T03:14:37;21.83;;;21.73;;
71176;SDS011;58877;51.992;4.504;2024-03-06T03:17:02;21.10;;;21.09;;
71176;SDS011;58877;51.992;4.504;2024-03-06T03:19:30;21.61;;;21.61;;
71176;SDS011;58877;51.992;4.504;2024-03-06T03:21:56;20.88;;;20.87;;
71176;SDS011;58877;51.992;4.504;2024-03-06T03:24:23;21.59;;;21.59;;
71176;SDS011;58877;51.992;4.504;2024-03-06T03:26:51;21.24;;;21.24;;
71176;SDS011;58877;51.992;4.504;2024-03-06T03:29:17;20.41;;;20.40;;
71176;SDS011;58877;51.992;4.504;2024-03-06T03:31:43;21.69;;;21.36;;
71176;SDS011;58877;51.992;4.504;2024-03-06T03:34:09;20.79;;;20.65;;
71176;SDS011;58877;51.992;4.504;2024-03-06T03:36:39;20.80;;;20.75;;
71176;SDS011;58877;51.992;4.504;2024-03-06T03:39:11;21.34;;;21.28;;
71176;SDS011;58877;51.992;4.504;2024-03-06T03:41:46;20.62;;;20.60;;
71176;SDS011;58877;51.992;4.504;2024-03-06T03:44:13;20.96;;;20.87;;
71176;SDS011;58877;51.992;4.504;2024-03-06T03:46:40;20.74;;;20.63;;
71176;SDS011;58877;51.992;4.504;2024-03-06T03:49:05;20.27;;;20.26;;
71176;SDS011;58877;51.992;4.504;2024-03-06T03:51:31;21.66;;;21.57;;
71176;SDS011;58877;51.992;4.504;2024-03-06T03:53:57;20.44;;;20.25;;
71176;SDS011;58877;51.992;4.504;2024-03-06T03:56:22;20.93;;;20.89;;
71176;SDS011;58877;51.992;4.504;2024-03-06T03:58:48;21.95;;;21.86;;
71176;SDS011;58877;51.992;4.504;2024-03-06T04:01:14;22.34;;;22.22;;
71176;SDS011;58877;51.992;4.504;2024-03-06T04:03:40;22.31;;;22.31;;
71176;SDS011;58877;51.992;4.504;2024-03-06T04:06:07;22.18;;;22.14;;
71176;SDS011;58877;51.992;4.504;2024-03-06T04:08:33;21.46;;;21.34;;
71176;SDS011;58877;51.992;4.504;2024-03-06T04:10:59;21.06;;;21.03;;
71176;SDS011;58877;51.992;4.504;2024-03-06T04:13:25;21.64;;;21.55;;
71176;SDS011;58877;51.992;4.504;2024-03-06T04:15:51;20.92;;;20.82;;
71176;SDS011;58877;51.992;4.504;2024-03-06T04:18:17;20.80;;;20.78;;
71176;SDS011;58877;51.992;4.504;2024-03-06T04:20:42;20.93;;;20.87;;
71176;SDS011;58877;51.992;4.504;2024-03-06T04:23:08;21.20;;;21.19;;
71176;SDS011;58877;51.992;4.504;2024-03-06T04:25:33;20.68;;;20.62;;
71176;SDS011;58877;51.992;4.504;2024-03-06T04:27:59;21.04;;;20.90;;
71176;SDS011;58877;51.992;4.504;2024-03-06T04:30:25;21.22;;;21.19;;
71176;SDS011;58877;51.992;4.504;2024-03-06T04:32:50;20.03;;;20.01;;
71176;SDS011;58877;51.992;4.504;2024-03-06T04:35:16;20.57;;;20.51;;
71176;SDS011;58877;51.992;4.504;2024-03-06T04:37:41;21.51;;;21.51;;
71176;SDS011;58877;51.992;4.504;2024-03-06T04:40:07;21.76;;;21.76;;
71176;SDS011;58877;51.992;4.504;2024-03-06T04:42:34;20.37;;;20.36;;
71176;SDS011;58877;51.992;4.504;2024-03-06T04:45:19;20.77;;;20.74;;
71176;SDS011;58877;51.992;4.504;2024-03-06T04:47:44;19.99;;;19.98;;
71176;SDS011;58877;51.992;4.504;2024-03-06T04:50:11;20.90;;;20.88;;
71176;SDS011;58877;51.992;4.504;2024-03-06T04:52:39;21.11;;;21.03;;
71176;SDS011;58877;51.992;4.504;2024-03-06T04:55:06;21.26;;;20.96;;
71176;SDS011;58877;51.992;4.504;2024-03-06T04:57:36;21.13;;;20.94;;
71176;SDS011;58877;51.992;4.504;2024-03-06T05:00:02;21.37;;;21.28;;
71176;SDS011;58877;51.992;4.504;2024-03-06T05:02:31;21.59;;;21.42;;
71176;SDS011;58877;51.992;4.504;2024-03-06T05:04:59;21.59;;;21.39;;
71176;SDS011;58877;51.992;4.504;2024-03-06T05:07:27;20.83;;;20.67;;
71176;SDS011;58877;51.992;4.504;2024-03-06T05:09:53;20.83;;;20.74;;
71176;SDS011;58877;51.992;4.504;2024-03-06T05:12:19;19.52;;;19.52;;
71176;SDS011;58877;51.992;4.504;2024-03-06T05:14:44;20.23;;;20.17;;
71176;SDS011;58877;51.992;4.504;2024-03-06T05:17:10;20.13;;;20.13;;
71176;SDS011;58877;51.992;4.504;2024-03-06T05:19:36;19.79;;;19.76;;
71176;SDS011;58877;51.992;4.504;2024-03-06T05:22:02;20.33;;;20.05;;
71176;SDS011;58877;51.992;4.504;2024-03-06T05:24:28;19.41;;;19.34;;
71176;SDS011;58877;51.992;4.504;2024-03-06T05:26:55;19.42;;;19.40;;
71176;SDS011;58877;51.992;4.504;2024-03-06T05:29:20;19.20;;;19.17;;
71176;SDS011;58877;51.992;4.504;2024-03-06T05:31:46;20.96;;;20.73;;
71176;SDS011;58877;51.992;4.504;2024-03-06T05:34:12;19.02;;;18.97;;
71176;SDS011;58877;51.992;4.504;2024-03-06T05:36:37;19.78;;;19.70;;
71176;SDS011;58877;51.992;4.504;2024-03-06T05:39:03;19.21;;;18.80;;
71176;SDS011;58877;51.992;4.504;2024-03-06T05:41:40;19.25;;;19.17;;
71176;SDS011;58877;51.992;4.504;2024-03-06T05:44:07;19.15;;;19.15;;
71176;SDS011;58877;51.992;4.504;2024-03-06T05:46:32;18.18;;;18.18;;
71176;SDS011;58877;51.992;4.504;2024-03-06T05:48:58;19.02;;;18.93;;
71176;SDS011;58877;51.992;4.504;2024-03-06T05:51:24;19.13;;;19.12;;
71176;SDS011;58877;51.992;4.504;2024-03-06T06:47:24;17.86;;;17.86;;
71176;SDS011;58877;51.992;4.504;2024-03-06T06:49:50;17.04;;;17.04;;
71176;SDS011;58877;51.992;4.504;2024-03-06T06:52:16;17.19;;;17.19;;
71176;SDS011;58877;51.992;4.504;2024-03-06T06:54:42;17.09;;;17.08;;
71176;SDS011;58877;51.992;4.504;2024-03-06T06:57:08;18.11;;;18.10;;
71176;SDS011;58877;51.992;4.504;2024-03-06T06:59:33;17.50;;;17.49;;
71176;SDS011;58877;51.992;4.504;2024-03-06T07:02:00;17.72;;;17.66;;
71176;SDS011;58877;51.992;4.504;2024-03-06T07:04:25;17.63;;;17.37;;
71176;SDS011;58877;51.992;4.504;2024-03-06T07:06:51;17.69;;;17.67;;
71176;SDS011;58877;51.992;4.504;2024-03-06T07:09:17;17.09;;;17.09;;
71176;SDS011;58877;51.992;4.504;2024-03-06T07:11:44;17.46;;;17.44;;
71176;SDS011;58877;51.992;4.504;2024-03-06T07:14:11;16.58;;;16.56;;
71176;SDS011;58877;51.992;4.504;2024-03-06T07:16:44;16.48;;;16.45;;
71176;SDS011;58877;51.992;4.504;2024-03-06T07:19:10;16.42;;;16.42;;
71176;SDS011;58877;51.992;4.504;2024-03-06T07:21:36;16.91;;;16.91;;
71176;SDS011;58877;51.992;4.504;2024-03-06T07:24:03;17.23;;;17.16;;
71176;SDS011;58877;51.992;4.504;2024-03-06T07:26:31;17.10;;;17.10;;
71176;SDS011;58877;51.992;4.504;2024-03-06T07:28:57;17.31;;;17.31;;
71176;SDS011;58877;51.992;4.504;2024-03-06T07:31:24;17.84;;;17.84;;
71176;SDS011;58877;51.992;4.504;2024-03-06T07:33:50;17.83;;;17.80;;
71176;SDS011;58877;51.992;4.504;2024-03-06T07:36:16;17.49;;;17.49;;
71176;SDS011;58877;51.992;4.504;2024-03-06T07:38:42;17.87;;;17.86;;
71176;SDS011;58877;51.992;4.504;2024-03-06T07:41:08;17.65;;;17.60;;
71176;SDS011;58877;51.992;4.504;2024-03-06T07:43:33;16.95;;;16.95;;
71176;SDS011;58877;51.992;4.504;2024-03-06T07:45:59;17.27;;;17.26;;
71176;SDS011;58877;51.992;4.504;2024-03-06T07:48:25;18.39;;;18.39;;
71176;SDS011;58877;51.992;4.504;2024-03-06T07:50:51;18.68;;;18.58;;
71176;SDS011;58877;51.992;4.504;2024-03-06T07:53:16;18.18;;;18.15;;
71176;SDS011;58877;51.992;4.504;2024-03-06T07:55:42;17.88;;;17.82;;
71176;SDS011;58877;51.992;4.504;2024-03-06T07:58:10;18.72;;;18.71;;
71176;SDS011;58877;51.992;4.504;2024-03-06T08:00:38;19.30;;;19.16;;
71176;SDS011;58877;51.992;4.504;2024-03-06T08:03:04;19.37;;;19.34;;
71176;SDS011;58877;51.992;4.504;2024-03-06T08:05:30;18.98;;;18.98;;
71176;SDS011;58877;51.992;4.504;2024-03-06T08:07:55;18.90;;;18.90;;
71176;SDS011;58877;51.992;4.504;2024-03-06T08:10:21;20.24;;;20.24;;
71176;SDS011;58877;51.992;4.504;2024-03-06T08:12:46;19.52;;;19.52;;
71176;SDS011;58877;51.992;4.504;2024-03-06T08:15:15;19.35;;;19.35;;
71176;SDS011;58877;51.992;4.504;2024-03-06T08:17:43;19.20;;;19.20;;
71176;SDS011;58877;51.992;4.504;2024-03-06T08:20:09;19.60;;;19.56;;
71176;SDS011;58877;51.992;4.504;2024-03-06T08:22:36;19.47;;;19.45;;
71176;SDS011;58877;51.992;4.504;2024-03-06T08:25:06;19.18;;;19.17;;
71176;SDS011;58877;51.992;4.504;2024-03-06T08:27:36;20.39;;;20.39;;
71176;SDS011;58877;51.992;4.504;2024-03-06T08:30:04;19.43;;;19.43;;
71176;SDS011;58877;51.992;4.504;2024-03-06T08:32:34;20.17;;;20.17;;
71176;SDS011;58877;51.992;4.504;2024-03-06T08:35:04;20.05;;;20.05;;
71176;SDS011;58877;51.992;4.504;2024-03-06T08:37:33;21.26;;;21.17;;
71176;SDS011;58877;51.992;4.504;2024-03-06T08:39:59;20.41;;;20.37;;
71176;SDS011;58877;51.992;4.504;2024-03-06T08:42:26;21.31;;;21.31;;
71176;SDS011;58877;51.992;4.504;2024-03-06T08:44:53;21.09;;;21.09;;
71176;SDS011;58877;51.992;4.504;2024-03-06T08:47:18;21.15;;;21.08;;
71176;SDS011;58877;51.992;4.504;2024-03-06T08:49:44;21.38;;;21.35;;
71176;SDS011;58877;51.992;4.504;2024-03-06T08:52:10;21.12;;;21.12;;
71176;SDS011;58877;51.992;4.504;2024-03-06T08:54:36;21.01;;;21.01;;
71176;SDS011;58877;51.992;4.504;2024-03-06T08:57:02;20.53;;;20.52;;
71176;SDS011;58877;51.992;4.504;2024-03-06T08:59:29;20.97;;;20.97;;
71176;SDS011;58877;51.992;4.504;2024-03-06T09:01:55;21.36;;;21.36;;
71176;SDS011;58877;51.992;4.504;2024-03-06T09:04:25;21.25;;;21.25;;
71176;SDS011;58877;51.992;4.504;2024-03-06T09:06:51;20.69;;;20.69;;
71176;SDS011;58877;51.992;4.504;2024-03-06T09:09:17;19.80;;;19.79;;
71176;SDS011;58877;51.992;4.504;2024-03-06T09:11:42;20.56;;;20.56;;
71176;SDS011;58877;51.992;4.504;2024-03-06T09:14:08;21.13;;;21.11;;
71176;SDS011;58877;51.992;4.504;2024-03-06T09:16:37;20.45;;;20.45;;
71176;SDS011;58877;51.992;4.504;2024-03-06T09:19:02;20.79;;;20.77;;
71176;SDS011;58877;51.992;4.504;2024-03-06T09:21:28;20.99;;;20.98;;
71176;SDS011;58877;51.992;4.504;2024-03-06T09:23:54;21.07;;;20.89;;
71176;SDS011;58877;51.992;4.504;2024-03-06T09:26:19;20.88;;;20.88;;
71176;SDS011;58877;51.992;4.504;2024-03-06T09:28:49;21.49;;;21.49;;
71176;SDS011;58877;51.992;4.504;2024-03-06T09:31:15;21.36;;;21.36;;
71176;SDS011;58877;51.992;4.504;2024-03-06T09:33:40;21.01;;;21.01;;
71176;SDS011;58877;51.992;4.504;2024-03-06T09:36:06;21.87;;;21.87;;
71176;SDS011;58877;51.992;4.504;2024-03-06T09:38:35;21.85;;;21.84;;
71176;SDS011;58877;51.992;4.504;2024-03-06T09:41:02;22.06;;;22.05;;
71176;SDS011;58877;51.992;4.504;2024-03-06T09:43:28;21.75;;;21.75;;
71176;SDS011;58877;51.992;4.504;2024-03-06T09:45:54;21.78;;;21.75;;
71176;SDS011;58877;51.992;4.504;2024-03-06T09:48:24;21.64;;;21.62;;
71176;SDS011;58877;51.992;4.504;2024-03-06T09:50:50;22.21;;;22.20;;
71176;SDS011;58877;51.992;4.504;2024-03-06T09:53:20;20.21;;;20.21;;
71176;SDS011;58877;51.992;4.504;2024-03-06T09:55:47;20.30;;;20.24;;
71176;SDS011;58877;51.992;4.504;2024-03-06T09:58:21;19.17;;;19.16;;
71176;SDS011;58877;51.992;4.504;2024-03-06T10:00:50;18.47;;;18.47;;
71176;SDS011;58877;51.992;4.504;2024-03-06T10:03:18;18.57;;;18.57;;
71176;SDS011;58877;51.992;4.504;2024-03-06T10:05:45;19.18;;;19.17;;
71176;SDS011;58877;51.992;4.504;2024-03-06T10:08:12;16.78;;;16.75;;
71176;SDS011;58877;51.992;4.504;2024-03-06T10:10:41;12.03;;;12.03;;
71176;SDS011;58877;51.992;4.504;2024-03-06T10:13:08;11.83;;;11.82;;
71176;SDS011;58877;51.992;4.504;2024-03-06T10:15:34;11.92;;;11.92;;
71176;SDS011;58877;51.992;4.504;2024-03-06T10:18:11;11.96;;;11.95;;
71176;SDS011;58877;51.992;4.504;2024-03-06T10:20:38;11.27;;;11.26;;
71176;SDS011;58877;51.992;4.504;2024-03-06T10:23:03;11.09;;;11.01;;
71176;SDS011;58877;51.992;4.504;2024-03-06T10:25:29;10.32;;;10.24;;
71176;SDS011;58877;51.992;4.504;2024-03-06T10:28:08;9.94;;;9.90;;
71176;SDS011;58877;51.992;4.504;2024-03-06T10:30:36;10.27;;;10.23;;
71176;SDS011;58877;51.992;4.504;2024-03-06T10:33:09;9.76;;;9.75;;
71176;SDS011;58877;51.992;4.504;2024-03-06T10:35:39;10.02;;;10.01;;
71176;SDS011;58877;51.992;4.504;2024-03-06T10:38:07;8.97;;;8.95;;
71176;SDS011;58877;51.992;4.504;2024-03-06T10:40:34;9.58;;;9.58;;
71176;SDS011;58877;51.992;4.504;2024-03-06T10:43:05;10.57;;;10.56;;
71176;SDS011;58877;51.992;4.504;2024-03-06T10:45:49;10.83;;;10.83;;
71176;SDS011;58877;51.992;4.504;2024-03-06T10:48:19;10.89;;;10.89;;
71176;SDS011;58877;51.992;4.504;2024-03-06T10:50:46;9.22;;;9.21;;
71176;SDS011;58877;51.992;4.504;2024-03-06T10:53:14;10.21;;;10.14;;
71176;SDS011;58877;51.992;4.504;2024-03-06T10:55:51;9.20;;;9.16;;
71176;SDS011;58877;51.992;4.504;2024-03-06T10:58:20;9.71;;;9.70;;
71176;SDS011;58877;51.992;4.504;2024-03-06T11:00:47;9.19;;;9.15;;
71176;SDS011;58877;51.992;4.504;2024-03-06T11:03:17;9.04;;;9.04;;
71176;SDS011;58877;51.992;4.504;2024-03-06T11:05:43;8.89;;;8.88;;
71176;SDS011;58877;51.992;4.504;2024-03-06T11:08:19;8.58;;;8.55;;
71176;SDS011;58877;51.992;4.504;2024-03-06T11:10:45;8.82;;;8.81;;
71176;SDS011;58877;51.992;4.504;2024-03-06T11:15:46;9.26;;;9.26;;
71176;SDS011;58877;51.992;4.504;2024-03-06T11:23:30;7.15;;;7.15;;
71176;SDS011;58877;51.992;4.504;2024-03-06T11:26:01;6.82;;;6.82;;
71176;SDS011;58877;51.992;4.504;2024-03-06T11:28:37;6.53;;;6.53;;
71176;SDS011;58877;51.992;4.504;2024-03-06T11:31:11;6.34;;;6.34;;
71176;SDS011;58877;51.992;4.504;2024-03-06T11:33:43;6.51;;;6.51;;
71176;SDS011;58877;51.992;4.504;2024-03-06T11:36:20;6.74;;;6.74;;
71176;SDS011;58877;51.992;4.504;2024-03-06T11:42:03;5.63;;;5.63;;
71176;SDS011;58877;51.992;4.504;2024-03-06T11:44:17;5.34;;;5.34;;
71176;SDS011;58877;51.992;4.504;2024-03-06T11:47:00;5.31;;;5.31;;
71176;SDS011;58877;51.992;4.504;2024-03-06T11:49:29;5.30;;;5.30;;
71176;SDS011;58877;51.992;4.504;2024-03-06T11:52:07;5.43;;;5.43;;
71176;SDS011;58877;51.992;4.504;2024-03-06T11:54:34;5.57;;;5.57;;
71176;SDS011;58877;51.992;4.504;2024-03-06T11:57:01;5.45;;;5.45;;
71176;SDS011;58877;51.992;4.504;2024-03-06T11:59:33;5.09;;;5.09;;
71176;SDS011;58877;51.992;4.504;2024-03-06T12:02:01;5.08;;;5.08;;
71176;SDS011;58877;51.992;4.504;2024-03-06T12:04:30;5.30;;;5.30;;
71176;SDS011;58877;51.992;4.504;2024-03-06T12:06:57;5.34;;;5.34;;
71176;SDS011;58877;51.992;4.504;2024-03-06T12:09:30;5.72;;;5.72;;
71176;SDS011;58877;51.992;4.504;2024-03-06T12:11:56;5.72;;;5.72;;
71176;SDS011;58877;51.992;4.504;2024-03-06T14:14:57;4.92;;;4.92;;
71176;SDS011;58877;51.992;4.504;2024-03-06T14:17:22;4.34;;;4.34;;
71176;SDS011;58877;51.992;4.504;2024-03-06T14:19:49;4.75;;;4.75;;
71176;SDS011;58877;51.992;4.504;2024-03-06T14:22:14;4.37;;;4.36;;
71176;SDS011;58877;51.992;4.504;2024-03-06T14:24:41;5.20;;;5.20;;
71176;SDS011;58877;51.992;4.504;2024-03-06T14:27:07;4.54;;;4.54;;
71176;SDS011;58877;51.992;4.504;2024-03-06T14:29:33;4.22;;;4.22;;
71176;SDS011;58877;51.992;4.504;2024-03-06T14:31:58;4.22;;;4.22;;
71176;SDS011;58877;51.992;4.504;2024-03-06T14:34:24;4.17;;;4.17;;
71176;SDS011;58877;51.992;4.504;2024-03-06T14:36:50;4.11;;;4.11;;
71176;SDS011;58877;51.992;4.504;2024-03-06T14:39:16;4.15;;;4.15;;
71176;SDS011;58877;51.992;4.504;2024-03-06T14:41:42;3.84;;;3.84;;
71176;SDS011;58877;51.992;4.504;2024-03-06T14:44:10;4.13;;;4.13;;
71176;SDS011;58877;51.992;4.504;2024-03-06T14:46:35;4.20;;;4.20;;
71176;SDS011;58877;51.992;4.504;2024-03-06T14:49:04;4.90;;;4.90;;
71176;SDS011;58877;51.992;4.504;2024-03-06T14:51:30;4.61;;;4.61;;
71176;SDS011;58877;51.992;4.504;2024-03-06T14:53:55;4.37;;;4.37;;
71176;SDS011;58877;51.992;4.504;2024-03-06T14:56:24;5.00;;;5.00;;
71176;SDS011;58877;51.992;4.504;2024-03-06T14:58:50;5.30;;;5.30;;
71176;SDS011;58877;51.992;4.504;2024-03-06T15:01:17;5.45;;;5.45;;
71176;SDS011;58877;51.992;4.504;2024-03-06T15:03:43;4.93;;;4.93;;
71176;SDS011;58877;51.992;4.504;2024-03-06T15:06:10;5.07;;;5.07;;
71176;SDS011;58877;51.992;4.504;2024-03-06T15:08:37;4.96;;;4.96;;
71176;SDS011;58877;51.992;4.504;2024-03-06T15:11:03;5.32;;;5.32;;
71176;SDS011;58877;51.992;4.504;2024-03-06T15:13:28;4.56;;;4.56;;
71176;SDS011;58877;51.992;4.504;2024-03-06T15:15:54;5.09;;;5.09;;
71176;SDS011;58877;51.992;4.504;2024-03-06T15:18:20;5.50;;;5.50;;
71176;SDS011;58877;51.992;4.504;2024-03-06T15:20:45;5.66;;;5.66;;
71176;SDS011;58877;51.992;4.504;2024-03-06T15:23:11;5.63;;;5.63;;
71176;SDS011;58877;51.992;4.504;2024-03-06T15:25:37;5.59;;;5.59;;
71176;SDS011;58877;51.992;4.504;2024-03-06T15:28:03;5.03;;;5.03;;
71176;SDS011;58877;51.992;4.504;2024-03-06T15:30:29;4.91;;;4.91;;
71176;SDS011;58877;51.992;4.504;2024-03-06T15:32:59;5.27;;;5.27;;
71176;SDS011;58877;51.992;4.504;2024-03-06T15:35:25;5.19;;;5.19;;
71176;SDS011;58877;51.992;4.504;2024-03-06T15:37:51;5.57;;;5.57;;
71176;SDS011;58877;51.992;4.504;2024-03-06T15:40:17;5.26;;;5.26;;
71176;SDS011;58877;51.992;4.504;2024-03-06T15:42:43;5.47;;;5.47;;
71176;SDS011;58877;51.992;4.504;2024-03-06T15:45:10;5.33;;;5.33;;
71176;SDS011;58877;51.992;4.504;2024-03-06T15:47:37;4.77;;;4.77;;
71176;SDS011;58877;51.992;4.504;2024-03-06T15:50:03;4.77;;;4.77;;
71176;SDS011;58877;51.992;4.504;2024-03-06T15:52:36;4.71;;;4.71;;
71176;SDS011;58877;51.992;4.504;2024-03-06T15:55:04;4.76;;;4.76;;
71176;SDS011;58877;51.992;4.504;2024-03-06T15:57:34;4.65;;;4.65;;
71176;SDS011;58877;51.992;4.504;2024-03-06T16:00:00;4.65;;;4.65;;
71176;SDS011;58877;51.992;4.504;2024-03-06T16:02:27;4.70;;;4.70;;
71176;SDS011;58877;51.992;4.504;2024-03-06T16:04:53;5.73;;;5.73;;
71176;SDS011;58877;51.992;4.504;2024-03-06T16:07:18;6.98;;;6.98;;
71176;SDS011;58877;51.992;4.504;2024-03-06T16:09:44;8.37;;;8.37;;
71176;SDS011;58877;51.992;4.504;2024-03-06T16:12:10;9.16;;;9.13;;
71176;SDS011;58877;51.992;4.504;2024-03-06T16:14:35;10.12;;;10.12;;
71176;SDS011;58877;51.992;4.504;2024-03-06T16:17:01;10.23;;;10.23;;
71176;SDS011;58877;51.992;4.504;2024-03-06T16:19:34;9.88;;;9.88;;
71176;SDS011;58877;51.992;4.504;2024-03-06T16:22:03;10.17;;;10.17;;
71176;SDS011;58877;51.992;4.504;2024-03-06T16:24:29;9.53;;;9.50;;
71176;SDS011;58877;51.992;4.504;2024-03-06T16:26:56;9.72;;;9.72;;
71176;SDS011;58877;51.992;4.504;2024-03-06T16:29:22;9.80;;;9.80;;
71176;SDS011;58877;51.992;4.504;2024-03-06T16:31:48;9.73;;;9.73;;
71176;SDS011;58877;51.992;4.504;2024-03-06T16:34:17;10.45;;;10.38;;
71176;SDS011;58877;51.992;4.504;2024-03-06T16:36:50;10.61;;;10.61;;
71176;SDS011;58877;51.992;4.504;2024-03-06T16:39:16;9.92;;;9.92;;
71176;SDS011;58877;51.992;4.504;2024-03-06T16:41:42;10.03;;;10.02;;
71176;SDS011;58877;51.992;4.504;2024-03-06T16:44:08;9.75;;;9.75;;
71176;SDS011;58877;51.992;4.504;2024-03-06T16:46:37;9.71;;;9.71;;
71176;SDS011;58877;51.992;4.504;2024-03-06T16:49:03;10.09;;;10.09;;
71176;SDS011;58877;51.992;4.504;2024-03-06T16:51:29;9.69;;;9.69;;
71176;SDS011;58877;51.992;4.504;2024-03-06T16:53:57;10.19;;;10.15;;
71176;SDS011;58877;51.992;4.504;2024-03-06T16:56:23;8.97;;;8.97;;
71176;SDS011;58877;51.992;4.504;2024-03-06T16:58:54;9.99;;;9.99;;
71176;SDS011;58877;51.992;4.504;2024-03-06T17:01:19;9.59;;;9.59;;
71176;SDS011;58877;51.992;4.504;2024-03-06T17:03:51;9.89;;;9.89;;
71176;SDS011;58877;51.992;4.504;2024-03-06T17:06:16;10.16;;;10.16;;
71176;SDS011;58877;51.992;4.504;2024-03-06T17:08:43;10.29;;;10.27;;
71176;SDS011;58877;51.992;4.504;2024-03-06T17:11:11;10.08;;;10.06;;
71176;SDS011;58877;51.992;4.504;2024-03-06T17:13:37;10.45;;;10.45;;
71176;SDS011;58877;51.992;4.504;2024-03-06T17:16:05;10.47;;;10.47;;
71176;SDS011;58877;51.992;4.504;2024-03-06T17:18:32;10.39;;;10.39;;
71176;SDS011;58877;51.992;4.504;2024-03-06T17:20:59;10.64;;;10.63;;
71176;SDS011;58877;51.992;4.504;2024-03-06T17:23:25;11.18;;;11.18;;
71176;SDS011;58877;51.992;4.504;2024-03-06T17:25:50;11.07;;;11.07;;
71176;SDS011;58877;51.992;4.504;2024-03-06T17:28:16;10.81;;;10.81;;
71176;SDS011;58877;51.992;4.504;2024-03-06T17:30:44;11.26;;;11.20;;
71176;SDS011;58877;51.992;4.504;2024-03-06T17:33:11;11.22;;;11.19;;